sensor_id;sensor_type;location;lat;lon;timestamp;pressure;altitude;pressure_sealevel;temperature;humidity
13695;BME280;6919;52.344;14.518;2023-04-02T00:00:15;100277.53;;;5.52;100.00
13695;BME280;6919;52.344;14.518;2023-04-02T00:02:59;100268.78;;;5.61;100.00
13695;BME280;6919;52.344;14.518;2023-04-02T00:05:42;100272.91;;;5.75;100.00
13695;BME280;6919;52.344;14.518;2023-04-02T00:08:26;100278.53;;;5.51;100.00
13695;BME280;6919;52.344;14.518;2023-04-02T00:10:57;100280.72;;;5.67;100.00
13695;BME280;6919;52.344;14.518;2023-04-02T00:13:32;100288.34;;;5.60;100.00
13695;BME280;6919;52.344;14.518;2023-04-02T00:16:04;100291.56;;;5.54;100.00
13695;BME280;6919;52.344;14.518;2023-04-02T00:18:38;100292.88;;;5.39;100.00
13695;BME280;6919;52.344;14.518;2023-04-02T00:21:11;100289.28;;;5.50;100.00
13695;BME280;6919;52.344;14.518;2023-04-02T00:23:42;100292.06;;;5.28;100.00
13695;BME280;6919;52.344;14.518;2023-04-02T00:26:29;100302.03;;;5.35;100.00
13695;BME280;6919;52.344;14.518;2023-04-02T00:28:59;100301.47;;;5.32;100.00
13695;BME280;6919;52.344;14.518;2023-04-02T00:31:31;100300.47;;;5.12;100.00
13695;BME280;6919;52.344;14.518;2023-04-02T00:34:01;100297.97;;;5.00;100.00
13695;BME280;6919;52.344;14.518;2023-04-02T00:36:33;100311.81;;;5.14;100.00
13695;BME280;6919;52.344;14.518;2023-04-02T00:39:06;100313.47;;;5.26;100.00
13695;BME280;6919;52.344;14.518;2023-04-02T00:41:38;100313.56;;;5.04;100.00
13695;BME280;6919;52.344;14.518;2023-04-02T00:44:15;100323.81;;;4.98;100.00
13695;BME280;6919;52.344;14.518;2023-04-02T00:46:49;100313.19;;;4.98;100.00
13695;BME280;6919;52.344;14.518;2023-04-02T00:49:24;100326.56;;;5.18;100.00
13695;BME280;6919;52.344;14.518;2023-04-02T00:51:56;100323.34;;;5.24;100.00
13695;BME280;6919;52.344;14.518;2023-04-02T00:54:30;100328.22;;;5.19;100.00
13695;BME280;6919;52.344;14.518;2023-04-02T00:57:01;100334.91;;;5.14;100.00
13695;BME280;6919;52.344;14.518;2023-04-02T00:59:32;100332.13;;;5.15;100.00
13695;BME280;6919;52.344;14.518;2023-04-02T01:02:24;100344.41;;;5.16;100.00
13695;BME280;6919;52.344;14.518;2023-04-02T01:04:56;100346.09;;;5.17;100.00
13695;BME280;6919;52.344;14.518;2023-04-02T01:07:46;100345.44;;;5.04;100.00
13695;BME280;6919;52.344;14.518;2023-04-02T01:10:30;100345.81;;;5.31;100.00
13695;BME280;6919;52.344;14.518;2023-04-02T01:13:10;100349.38;;;5.41;100.00
13695;BME280;6919;52.344;14.518;2023-04-02T01:15:43;100355.56;;;5.42;100.00
13695;BME280;6919;52.344;14.518;2023-04-02T01:18:26;100360.63;;;5.13;100.00
13695;BME280;6919;52.344;14.518;2023-04-02T01:21:12;100366.25;;;4.88;100.00
13695;BME280;6919;52.344;14.518;2023-04-02T01:23:52;100366.56;;;4.95;100.00
13695;BME280;6919;52.344;14.518;2023-04-02T01:26:34;100364.78;;;4.95;100.00
13695;BME280;6919;52.344;14.518;2023-04-02T01:29:15;100368.63;;;5.02;100.00
13695;BME280;6919;52.344;14.518;2023-04-02T01:31:46;100370.81;;;4.97;100.00
13695;BME280;6919;52.344;14.518;2023-04-02T01:34:18;100380.69;;;5.06;100.00
13695;BME280;6919;52.344;14.518;2023-04-02T01:37:17;100392.50;;;5.13;100.00
13695;BME280;6919;52.344;14.518;2023-04-02T01:40:03;100393.72;;;5.09;100.00
13695;BME280;6919;52.344;14.518;2023-04-02T01:42:39;100392.25;;;5.16;100.00
13695;BME280;6919;52.344;14.518;2023-04-02T01:45:15;100393.19;;;5.26;100.00
13695;BME280;6919;52.344;14.518;2023-04-02T01:47:44;100396.78;;;5.36;100.00
13695;BME280;6919;52.344;14.518;2023-04-02T01:50:24;100395.97;;;5.25;100.00
13695;BME280;6919;52.344;14.518;2023-04-02T01:52:59;100401.09;;;5.17;100.00
13695;BME280;6919;52.344;14.518;2023-04-02T01:55:32;100407.09;;;5.19;100.00
13695;BME280;6919;52.344;14.518;2023-04-02T01:58:02;100412.94;;;5.13;100.00
13695;BME280;6919;52.344;14.518;2023-04-02T02:00:35;100414.22;;;5.29;100.00
13695;BME280;6919;52.344;14.518;2023-04-02T02:03:05;100427.97;;;5.34;100.00
13695;BME280;6919;52.344;14.518;2023-04-02T02:05:35;100427.03;;;5.24;100.00
13695;BME280;6919;52.344;14.518;2023-04-02T02:08:05;100420.97;;;5.33;100.00
13695;BME280;6919;52.344;14.518;2023-04-02T02:10:38;100432.25;;;5.15;100.00
13695;BME280;6919;52.344;14.518;2023-04-02T02:13:12;100435.66;;;5.06;100.00
13695;BME280;6919;52.344;14.518;2023-04-02T02:15:43;100438.28;;;5.17;100.00
13695;BME280;6919;52.344;14.518;2023-04-02T02:18:13;100439.13;;;5.17;100.00
13695;BME280;6919;52.344;14.518;2023-04-02T02:20:44;100444.47;;;5.06;100.00
13695;BME280;6919;52.344;14.518;2023-04-02T02:23:14;100441.56;;;5.09;100.00
13695;BME280;6919;52.344;14.518;2023-04-02T02:25:44;100452.53;;;5.16;100.00
13695;BME280;6919;52.344;14.518;2023-04-02T02:28:17;100458.69;;;5.16;100.00
13695;BME280;6919;52.344;14.518;2023-04-02T02:30:51;100461.47;;;5.15;100.00
13695;BME280;6919;52.344;14.518;2023-04-02T02:33:22;100464.88;;;5.17;100.00
13695;BME280;6919;52.344;14.518;2023-04-02T02:35:55;100466.66;;;5.16;100.00
13695;BME280;6919;52.344;14.518;2023-04-02T02:38:38;100463.03;;;5.17;100.00
13695;BME280;6919;52.344;14.518;2023-04-02T02:41:15;100480.06;;;5.15;100.00
13695;BME280;6919;52.344;14.518;2023-04-02T02:43:50;100481.88;;;5.25;100.00
13695;BME280;6919;52.344;14.518;2023-04-02T02:46:23;100487.19;;;5.14;100.00
13695;BME280;6919;52.344;14.518;2023-04-02T02:48:54;100481.88;;;5.25;100.00
13695;BME280;6919;52.344;14.518;2023-04-02T02:51:27;100495.69;;;4.97;100.00
13695;BME280;6919;52.344;14.518;2023-04-02T02:54:00;100499.28;;;4.85;100.00
13695;BME280;6919;52.344;14.518;2023-04-02T02:56:31;100506.06;;;4.78;100.00
13695;BME280;6919;52.344;14.518;2023-04-02T02:59:03;100499.41;;;4.84;100.00
13695;BME280;6919;52.344;14.518;2023-04-02T03:01:34;100507.66;;;4.92;100.00
13695;BME280;6919;52.344;14.518;2023-04-02T03:04:03;100500.97;;;4.86;100.00
13695;BME280;6919;52.344;14.518;2023-04-02T03:06:32;100506.91;;;4.68;100.00
13695;BME280;6919;52.344;14.518;2023-04-02T03:09:09;100512.09;;;4.91;100.00
13695;BME280;6919;52.344;14.518;2023-04-02T03:11:43;100519.72;;;4.85;100.00
13695;BME280;6919;52.344;14.518;2023-04-02T03:14:21;100520.19;;;5.01;100.00
13695;BME280;6919;52.344;14.518;2023-04-02T03:16:54;100523.19;;;4.96;100.00
13695;BME280;6919;52.344;14.518;2023-04-02T03:19:30;100532.03;;;4.97;100.00
13695;BME280;6919;52.344;14.518;2023-04-02T03:22:05;100528.28;;;4.99;100.00
13695;BME280;6919;52.344;14.518;2023-04-02T03:24:44;100535.16;;;4.91;100.00
13695;BME280;6919;52.344;14.518;2023-04-02T03:27:17;100550.84;;;4.94;100.00
13695;BME280;6919;52.344;14.518;2023-04-02T03:29:52;100550.00;;;4.93;100.00
13695;BME280;6919;52.344;14.518;2023-04-02T03:32:27;100554.84;;;4.99;100.00
13695;BME280;6919;52.344;14.518;2023-04-02T03:35:00;100558.72;;;4.95;100.00
13695;BME280;6919;52.344;14.518;2023-04-02T03:37:33;100560.16;;;4.88;100.00
13695;BME280;6919;52.344;14.518;2023-04-02T03:40:09;100557.38;;;4.79;100.00
13695;BME280;6919;52.344;14.518;2023-04-02T03:42:44;100568.59;;;4.82;100.00
13695;BME280;6919;52.344;14.518;2023-04-02T03:45:19;100563.28;;;4.82;100.00
13695;BME280;6919;52.344;14.518;2023-04-02T03:47:54;100576.44;;;4.73;100.00
13695;BME280;6919;52.344;14.518;2023-04-02T03:50:26;100579.53;;;4.67;100.00
13695;BME280;6919;52.344;14.518;2023-04-02T03:52:58;100585.72;;;4.67;100.00
13695;BME280;6919;52.344;14.518;2023-04-02T03:55:29;100589.34;;;4.66;100.00
13695;BME280;6919;52.344;14.518;2023-04-02T03:58:03;100596.06;;;4.48;100.00
13695;BME280;6919;52.344;14.518;2023-04-02T04:00:37;100604.38;;;4.55;100.00
13695;BME280;6919;52.344;14.518;2023-04-02T04:03:13;100610.81;;;4.63;100.00
13695;BME280;6919;52.344;14.518;2023-04-02T04:05:47;100620.22;;;4.56;100.00
13695;BME280;6919;52.344;14.518;2023-04-02T04:08:19;100620.66;;;4.50;100.00
13695;BME280;6919;52.344;14.518;2023-04-02T04:10:51;100627.00;;;4.71;100.00
13695;BME280;6919;52.344;14.518;2023-04-02T04:13:27;100625.06;;;4.62;100.00
13695;BME280;6919;52.344;14.518;2023-04-02T04:16:01;100633.25;;;4.59;100.00
13695;BME280;6919;52.344;14.518;2023-04-02T04:18:37;100635.47;;;4.65;100.00
13695;BME280;6919;52.344;14.518;2023-04-02T04:21:14;100639.50;;;4.93;100.00
13695;BME280;6919;52.344;14.518;2023-04-02T04:23:50;100643.75;;;4.61;100.00
13695;BME280;6919;52.344;14.518;2023-04-02T04:26:21;100649.59;;;4.77;100.00
13695;BME280;6919;52.344;14.518;2023-04-02T04:28:58;100652.44;;;4.63;100.00
13695;BME280;6919;52.344;14.518;2023-04-02T04:31:35;100666.75;;;4.49;100.00
13695;BME280;6919;52.344;14.518;2023-04-02T04:34:12;100671.81;;;4.41;100.00
13695;BME280;6919;52.344;14.518;2023-04-02T04:36:44;100668.72;;;4.35;100.00
13695;BME280;6919;52.344;14.518;2023-04-02T04:39:24;100668.03;;;4.33;100.00
13695;BME280;6919;52.344;14.518;2023-04-02T04:41:58;100676.16;;;4.42;100.00
13695;BME280;6919;52.344;14.518;2023-04-02T04:44:39;100675.00;;;4.34;100.00
13695;BME280;6919;52.344;14.518;2023-04-02T04:47:13;100676.59;;;4.36;100.00
13695;BME280;6919;52.344;14.518;2023-04-02T04:49:47;100684.78;;;4.33;100.00
13695;BME280;6919;52.344;14.518;2023-04-02T04:52:21;100700.03;;;4.42;100.00
13695;BME280;6919;52.344;14.518;2023-04-02T04:54:51;100695.16;;;4.36;100.00
13695;BME280;6919;52.344;14.518;2023-04-02T04:57:26;100696.34;;;4.32;100.00
13695;BME280;6919;52.344;14.518;2023-04-02T05:00:00;100710.16;;;4.37;100.00
13695;BME280;6919;52.344;14.518;2023-04-02T05:02:37;100712.44;;;4.18;100.00
13695;BME280;6919;52.344;14.518;2023-04-02T05:05:18;100713.03;;;4.34;100.00
13695;BME280;6919;52.344;14.518;2023-04-02T05:07:51;100727.00;;;4.13;100.00
13695;BME280;6919;52.344;14.518;2023-04-02T05:10:32;100725.56;;;3.96;100.00
13695;BME280;6919;52.344;14.518;2023-04-02T05:13:08;100733.81;;;4.04;100.00
13695;BME280;6919;52.344;14.518;2023-04-02T05:15:42;100733.81;;;4.87;100.00
13695;BME280;6919;52.344;14.518;2023-04-02T05:18:21;100737.16;;;4.89;100.00
13695;BME280;6919;52.344;14.518;2023-04-02T05:20:58;100741.50;;;4.79;100.00
13695;BME280;6919;52.344;14.518;2023-04-02T05:23:29;100735.41;;;5.01;100.00
13695;BME280;6919;52.344;14.518;2023-04-02T05:26:03;100747.34;;;4.95;100.00
13695;BME280;6919;52.344;14.518;2023-04-02T05:28:37;100747.50;;;5.05;100.00
13695;BME280;6919;52.344;14.518;2023-04-02T05:31:11;100755.59;;;5.03;100.00
13695;BME280;6919;52.344;14.518;2023-04-02T05:33:44;100756.59;;;5.13;100.00
13695;BME280;6919;52.344;14.518;2023-04-02T05:36:21;100755.78;;;5.24;100.00
13695;BME280;6919;52.344;14.518;2023-04-02T05:38:51;100763.47;;;4.81;100.00
13695;BME280;6919;52.344;14.518;2023-04-02T05:41:24;100768.22;;;4.89;100.00
13695;BME280;6919;52.344;14.518;2023-04-02T05:44:01;100768.44;;;4.86;100.00
13695;BME280;6919;52.344;14.518;2023-04-02T05:46:35;100781.03;;;4.95;100.00
13695;BME280;6919;52.344;14.518;2023-04-02T05:49:17;100785.97;;;4.88;100.00
13695;BME280;6919;52.344;14.518;2023-04-02T05:51:51;100783.69;;;4.71;100.00
13695;BME280;6919;52.344;14.518;2023-04-02T05:54:28;100788.50;;;4.66;100.00
13695;BME280;6919;52.344;14.518;2023-04-02T05:57:02;100790.03;;;4.81;100.00
13695;BME280;6919;52.344;14.518;2023-04-02T05:59:35;100795.94;;;4.61;100.00
13695;BME280;6919;52.344;14.518;2023-04-02T06:02:11;100796.69;;;4.63;100.00
13695;BME280;6919;52.344;14.518;2023-04-02T06:04:45;100806.41;;;4.75;100.00
13695;BME280;6919;52.344;14.518;2023-04-02T06:07:22;100806.13;;;4.67;100.00
13695;BME280;6919;52.344;14.518;2023-04-02T06:09:53;100810.59;;;4.67;100.00
13695;BME280;6919;52.344;14.518;2023-04-02T06:12:27;100808.56;;;4.70;100.00
13695;BME280;6919;52.344;14.518;2023-04-02T06:14:58;100813.59;;;4.62;100.00
13695;BME280;6919;52.344;14.518;2023-04-02T06:17:27;100814.91;;;4.57;100.00
13695;BME280;6919;52.344;14.518;2023-04-02T06:19:57;100819.84;;;4.61;100.00
13695;BME280;6919;52.344;14.518;2023-04-02T06:22:35;100827.69;;;4.63;100.00
13695;BME280;6919;52.344;14.518;2023-04-02T06:25:10;100830.94;;;4.55;100.00
13695;BME280;6919;52.344;14.518;2023-04-02T06:27:41;100830.91;;;4.68;100.00
13695;BME280;6919;52.344;14.518;2023-04-02T06:30:17;100833.41;;;4.82;100.00
13695;BME280;6919;52.344;14.518;2023-04-02T06:32:46;100843.16;;;4.81;100.00
13695;BME280;6919;52.344;14.518;2023-04-02T06:35:15;100842.88;;;4.73;100.00
13695;BME280;6919;52.344;14.518;2023-04-02T06:37:48;100849.47;;;4.68;100.00
13695;BME280;6919;52.344;14.518;2023-04-02T06:40:32;100857.25;;;4.71;100.00
13695;BME280;6919;52.344;14.518;2023-04-02T06:43:04;100856.41;;;4.94;100.00
13695;BME280;6919;52.344;14.518;2023-04-02T06:45:39;100859.28;;;4.91;100.00
13695;BME280;6919;52.344;14.518;2023-04-02T06:48:15;100863.28;;;4.96;100.00
13695;BME280;6919;52.344;14.518;2023-04-02T06:50:47;100872.63;;;5.02;100.00
13695;BME280;6919;52.344;14.518;2023-04-02T06:53:22;100876.69;;;4.95;100.00
13695;BME280;6919;52.344;14.518;2023-04-02T06:55:54;100884.63;;;4.71;100.00
13695;BME280;6919;52.344;14.518;2023-04-02T06:58:25;100873.81;;;4.98;100.00
13695;BME280;6919;52.344;14.518;2023-04-02T07:00:54;100882.41;;;5.01;100.00
13695;BME280;6919;52.344;14.518;2023-04-02T07:03:25;100886.25;;;5.21;100.00
13695;BME280;6919;52.344;14.518;2023-04-02T07:05:55;100891.69;;;5.19;100.00
13695;BME280;6919;52.344;14.518;2023-04-02T07:08:25;100894.84;;;5.24;100.00
13695;BME280;6919;52.344;14.518;2023-04-02T07:10:54;100906.09;;;5.51;100.00
13695;BME280;6919;52.344;14.518;2023-04-02T07:13:24;100906.59;;;5.56;100.00
13695;BME280;6919;52.344;14.518;2023-04-02T07:15:53;100902.28;;;5.66;100.00
13695;BME280;6919;52.344;14.518;2023-04-02T07:18:25;100914.88;;;6.10;100.00
13695;BME280;6919;52.344;14.518;2023-04-02T07:20:54;100925.44;;;6.12;100.00
13695;BME280;6919;52.344;14.518;2023-04-02T07:23:25;100917.19;;;6.03;100.00
13695;BME280;6919;52.344;14.518;2023-04-02T07:25:54;100923.91;;;5.85;100.00
13695;BME280;6919;52.344;14.518;2023-04-02T07:28:24;100932.66;;;5.75;100.00
13695;BME280;6919;52.344;14.518;2023-04-02T07:30:54;100938.63;;;5.78;100.00
13695;BME280;6919;52.344;14.518;2023-04-02T07:33:25;100930.97;;;5.74;100.00
13695;BME280;6919;52.344;14.518;2023-04-02T07:35:56;100937.41;;;6.06;100.00
13695;BME280;6919;52.344;14.518;2023-04-02T07:38:26;100938.47;;;5.92;100.00
13695;BME280;6919;52.344;14.518;2023-04-02T07:40:54;100952.59;;;5.93;100.00
13695;BME280;6919;52.344;14.518;2023-04-02T07:43:23;100948.09;;;5.82;100.00
13695;BME280;6919;52.344;14.518;2023-04-02T07:45:52;100958.53;;;5.96;100.00
13695;BME280;6919;52.344;14.518;2023-04-02T07:48:20;100955.84;;;5.85;100.00
13695;BME280;6919;52.344;14.518;2023-04-02T07:50:49;100955.06;;;6.18;100.00
13695;BME280;6919;52.344;14.518;2023-04-02T07:53:28;100960.34;;;6.75;100.00
13695;BME280;6919;52.344;14.518;2023-04-02T07:55:58;100958.75;;;7.05;100.00
13695;BME280;6919;52.344;14.518;2023-04-02T07:58:28;100961.69;;;6.58;100.00
13695;BME280;6919;52.344;14.518;2023-04-02T08:00:57;100967.38;;;6.87;100.00
13695;BME280;6919;52.344;14.518;2023-04-02T08:03:26;100975.75;;;7.04;100.00
13695;BME280;6919;52.344;14.518;2023-04-02T08:05:57;100972.19;;;7.15;100.00
13695;BME280;6919;52.344;14.518;2023-04-02T08:08:25;100979.00;;;6.75;100.00
13695;BME280;6919;52.344;14.518;2023-04-02T08:10:55;100992.56;;;6.61;100.00
13695;BME280;6919;52.344;14.518;2023-04-02T08:13:24;100989.47;;;6.21;100.00
13695;BME280;6919;52.344;14.518;2023-04-02T08:15:52;100994.72;;;6.45;100.00
13695;BME280;6919;52.344;14.518;2023-04-02T08:18:21;101004.03;;;6.39;100.00
13695;BME280;6919;52.344;14.518;2023-04-02T08:20:50;101008.78;;;6.47;100.00
13695;BME280;6919;52.344;14.518;2023-04-02T08:23:19;101000.81;;;6.80;100.00
13695;BME280;6919;52.344;14.518;2023-04-02T08:25:48;101017.78;;;6.90;100.00
13695;BME280;6919;52.344;14.518;2023-04-02T08:28:19;101009.28;;;6.74;100.00
13695;BME280;6919;52.344;14.518;2023-04-02T08:30:49;101028.31;;;7.13;100.00
13695;BME280;6919;52.344;14.518;2023-04-02T08:33:19;101017.75;;;7.12;100.00
13695;BME280;6919;52.344;14.518;2023-04-02T08:35:48;101029.13;;;6.81;100.00
13695;BME280;6919;52.344;14.518;2023-04-02T08:38:19;101039.44;;;6.74;100.00
13695;BME280;6919;52.344;14.518;2023-04-02T08:40:50;101033.63;;;6.58;100.00
13695;BME280;6919;52.344;14.518;2023-04-02T08:43:36;101040.28;;;6.64;100.00
13695;BME280;6919;52.344;14.518;2023-04-02T08:46:15;101047.81;;;6.81;100.00
13695;BME280;6919;52.344;14.518;2023-04-02T08:48:51;101053.97;;;6.59;100.00
13695;BME280;6919;52.344;14.518;2023-04-02T08:51:24;101050.31;;;6.60;100.00
13695;BME280;6919;52.344;14.518;2023-04-02T08:53:54;101058.50;;;6.92;100.00
13695;BME280;6919;52.344;14.518;2023-04-02T08:56:28;101067.66;;;6.66;100.00
13695;BME280;6919;52.344;14.518;2023-04-02T08:59:02;101066.63;;;6.45;100.00
13695;BME280;6919;52.344;14.518;2023-04-02T09:01:41;101072.00;;;6.67;100.00
13695;BME280;6919;52.344;14.518;2023-04-02T09:04:14;101069.59;;;6.64;100.00
13695;BME280;6919;52.344;14.518;2023-04-02T09:06:45;101090.47;;;6.46;100.00
13695;BME280;6919;52.344;14.518;2023-04-02T09:09:15;101094.75;;;6.60;100.00
13695;BME280;6919;52.344;14.518;2023-04-02T09:11:47;101092.06;;;6.49;100.00
13695;BME280;6919;52.344;14.518;2023-04-02T09:14:22;101095.59;;;6.49;100.00
13695;BME280;6919;52.344;14.518;2023-04-02T09:16:53;101096.38;;;6.73;100.00
13695;BME280;6919;52.344;14.518;2023-04-02T09:19:25;101107.16;;;6.72;100.00
13695;BME280;6919;52.344;14.518;2023-04-02T09:22:07;101112.19;;;6.53;100.00
13695;BME280;6919;52.344;14.518;2023-04-02T09:24:36;101108.31;;;6.46;100.00
13695;BME280;6919;52.344;14.518;2023-04-02T09:27:15;101110.59;;;6.16;100.00
13695;BME280;6919;52.344;14.518;2023-04-02T09:29:48;101119.97;;;6.32;100.00
13695;BME280;6919;52.344;14.518;2023-04-02T09:32:31;101122.88;;;6.05;100.00
13695;BME280;6919;52.344;14.518;2023-04-02T09:35:11;101124.47;;;6.32;100.00
13695;BME280;6919;52.344;14.518;2023-04-02T09:38:18;101127.47;;;6.27;100.00
13695;BME280;6919;52.344;14.518;2023-04-02T09:40:49;101139.00;;;6.15;100.00
13695;BME280;6919;52.344;14.518;2023-04-02T09:43:19;101139.91;;;6.50;100.00
13695;BME280;6919;52.344;14.518;2023-04-02T09:46:01;101145.78;;;6.32;100.00
13695;BME280;6919;52.344;14.518;2023-04-02T09:48:32;101153.84;;;6.54;100.00
13695;BME280;6919;52.344;14.518;2023-04-02T09:51:13;101157.94;;;6.47;100.00
13695;BME280;6919;52.344;14.518;2023-04-02T09:53:43;101156.84;;;6.49;100.00
13695;BME280;6919;52.344;14.518;2023-04-02T09:56:15;101169.13;;;6.63;100.00
13695;BME280;6919;52.344;14.518;2023-04-02T09:58:45;101170.59;;;6.67;100.00
13695;BME280;6919;52.344;14.518;2023-04-02T10:01:31;101170.88;;;6.75;100.00
13695;BME280;6919;52.344;14.518;2023-04-02T10:04:03;101173.81;;;6.83;100.00
13695;BME280;6919;52.344;14.518;2023-04-02T10:06:33;101174.47;;;6.63;100.00
13695;BME280;6919;52.344;14.518;2023-04-02T10:09:18;101180.59;;;6.87;100.00
13695;BME280;6919;52.344;14.518;2023-04-02T10:11:47;101173.56;;;6.75;100.00
13695;BME280;6919;52.344;14.518;2023-04-02T10:14:19;101181.31;;;6.78;100.00
13695;BME280;6919;52.344;14.518;2023-04-02T10:16:52;101173.50;;;6.98;100.00
13695;BME280;6919;52.344;14.518;2023-04-02T10:19:27;101175.50;;;6.84;100.00
13695;BME280;6919;52.344;14.518;2023-04-02T10:22:01;101182.22;;;6.66;100.00
13695;BME280;6919;52.344;14.518;2023-04-02T10:24:30;101184.47;;;6.83;100.00
13695;BME280;6919;52.344;14.518;2023-04-02T10:27:06;101190.34;;;6.99;100.00
13695;BME280;6919;52.344;14.518;2023-04-02T10:29:53;101192.31;;;7.19;100.00
13695;BME280;6919;52.344;14.518;2023-04-02T10:32:34;101196.59;;;7.32;100.00
13695;BME280;6919;52.344;14.518;2023-04-02T10:35:07;101190.06;;;7.58;100.00
13695;BME280;6919;52.344;14.518;2023-04-02T10:40:47;101195.53;;;7.68;100.00
13695;BME280;6919;52.344;14.518;2023-04-02T10:46:54;101206.44;;;8.09;100.00
13695;BME280;6919;52.344;14.518;2023-04-02T10:49:34;101207.41;;;7.75;100.00
13695;BME280;6919;52.344;14.518;2023-04-02T10:52:11;101212.28;;;7.81;100.00
13695;BME280;6919;52.344;14.518;2023-04-02T10:54:47;101219.53;;;8.01;100.00
13695;BME280;6919;52.344;14.518;2023-04-02T10:57:30;101211.63;;;7.99;100.00
13695;BME280;6919;52.344;14.518;2023-04-02T11:00:06;101224.03;;;8.00;100.00
13695;BME280;6919;52.344;14.518;2023-04-02T11:02:47;101219.91;;;7.96;100.00
13695;BME280;6919;52.344;14.518;2023-04-02T11:05:26;101233.03;;;8.21;100.00
13695;BME280;6919;52.344;14.518;2023-04-02T11:08:01;101236.03;;;8.17;100.00
13695;BME280;6919;52.344;14.518;2023-04-02T11:10:32;101243.59;;;8.12;100.00
13695;BME280;6919;52.344;14.518;2023-04-02T11:13:08;101248.66;;;8.37;100.00
13695;BME280;6919;52.344;14.518;2023-04-02T11:15:40;101249.28;;;8.29;100.00
13695;BME280;6919;52.344;14.518;2023-04-02T11:18:22;101252.81;;;8.19;100.00
13695;BME280;6919;52.344;14.518;2023-04-02T11:20:59;101256.41;;;8.18;100.00
13695;BME280;6919;52.344;14.518;2023-04-02T11:23:34;101257.66;;;8.25;100.00
13695;BME280;6919;52.344;14.518;2023-04-02T11:26:32;101259.22;;;8.27;100.00
13695;BME280;6919;52.344;14.518;2023-04-02T11:29:13;101273.19;;;8.09;100.00
13695;BME280;6919;52.344;14.518;2023-04-02T11:31:44;101269.78;;;8.18;100.00
13695;BME280;6919;52.344;14.518;2023-04-02T11:34:15;101268.19;;;8.48;100.00
13695;BME280;6919;52.344;14.518;2023-04-02T11:37:08;101267.34;;;8.48;100.00
13695;BME280;6919;52.344;14.518;2023-04-02T11:40:01;101273.16;;;8.53;100.00
13695;BME280;6919;52.344;14.518;2023-04-02T11:42:33;101269.78;;;8.29;100.00
13695;BME280;6919;52.344;14.518;2023-04-02T11:45:52;101270.75;;;8.39;100.00
13695;BME280;6919;52.344;14.518;2023-04-02T11:48:29;101271.84;;;8.47;100.00
13695;BME280;6919;52.344;14.518;2023-04-02T11:50:59;101277.94;;;8.49;100.00
13695;BME280;6919;52.344;14.518;2023-04-02T11:53:33;101271.75;;;8.27;100.00
13695;BME280;6919;52.344;14.518;2023-04-02T11:56:08;101272.56;;;8.49;100.00
13695;BME280;6919;52.344;14.518;2023-04-02T11:58:49;101290.44;;;8.91;100.00
13695;BME280;6919;52.344;14.518;2023-04-02T12:01:38;101283.56;;;8.67;100.00
13695;BME280;6919;52.344;14.518;2023-04-02T12:04:32;101286.91;;;8.91;100.00
13695;BME280;6919;52.344;14.518;2023-04-02T12:10:04;101287.00;;;8.69;100.00
13695;BME280;6919;52.344;14.518;2023-04-02T12:12:39;101286.81;;;8.81;100.00
13695;BME280;6919;52.344;14.518;2023-04-02T12:15:32;101291.41;;;8.90;100.00
13695;BME280;6919;52.344;14.518;2023-04-02T12:18:10;101308.88;;;8.94;100.00
13695;BME280;6919;52.344;14.518;2023-04-02T12:20:40;101305.56;;;9.34;100.00
13695;BME280;6919;52.344;14.518;2023-04-02T12:23:20;101311.84;;;9.44;100.00
13695;BME280;6919;52.344;14.518;2023-04-02T12:25:56;101311.28;;;9.61;99.87
13695;BME280;6919;52.344;14.518;2023-04-02T12:28:27;101325.38;;;9.11;100.00
13695;BME280;6919;52.344;14.518;2023-04-02T12:31:04;101331.06;;;9.17;99.66
13695;BME280;6919;52.344;14.518;2023-04-02T12:33:39;101329.34;;;8.95;97.92
13695;BME280;6919;52.344;14.518;2023-04-02T12:36:18;101323.66;;;8.78;99.49
13695;BME280;6919;52.344;14.518;2023-04-02T12:38:49;101324.06;;;8.40;100.00
13695;BME280;6919;52.344;14.518;2023-04-02T12:41:22;101326.63;;;8.53;100.00
13695;BME280;6919;52.344;14.518;2023-04-02T12:43:58;101333.81;;;8.52;100.00
13695;BME280;6919;52.344;14.518;2023-04-02T12:46:27;101341.56;;;8.44;100.00
13695;BME280;6919;52.344;14.518;2023-04-02T12:49:02;101341.34;;;8.25;100.00
13695;BME280;6919;52.344;14.518;2023-04-02T12:51:31;101339.97;;;8.20;100.00
13695;BME280;6919;52.344;14.518;2023-04-02T12:54:00;101343.13;;;8.14;100.00
13695;BME280;6919;52.344;14.518;2023-04-02T12:56:30;101342.66;;;8.20;100.00
13695;BME280;6919;52.344;14.518;2023-04-02T12:59:00;101339.97;;;8.09;100.00
13695;BME280;6919;52.344;14.518;2023-04-02T13:01:29;101338.78;;;8.24;100.00
13695;BME280;6919;52.344;14.518;2023-04-02T13:04:02;101341.47;;;8.35;100.00
13695;BME280;6919;52.344;14.518;2023-04-02T13:06:31;101347.41;;;8.27;100.00
13695;BME280;6919;52.344;14.518;2023-04-02T13:09:01;101345.69;;;8.48;98.92
13695;BME280;6919;52.344;14.518;2023-04-02T13:11:36;101350.06;;;8.60;98.47
13695;BME280;6919;52.344;14.518;2023-04-02T13:14:07;101349.63;;;8.98;97.21
13695;BME280;6919;52.344;14.518;2023-04-02T13:16:37;101349.25;;;9.02;98.87
13695;BME280;6919;52.344;14.518;2023-04-02T13:19:26;101357.81;;;9.17;96.44
13695;BME280;6919;52.344;14.518;2023-04-02T13:21:56;101362.22;;;9.18;89.81
13695;BME280;6919;52.344;14.518;2023-04-02T13:24:26;101358.50;;;8.98;90.33
13695;BME280;6919;52.344;14.518;2023-04-02T13:26:58;101364.69;;;8.99;92.58
13695;BME280;6919;52.344;14.518;2023-04-02T13:29:28;101361.28;;;9.08;90.24
13695;BME280;6919;52.344;14.518;2023-04-02T13:31:58;101373.22;;;8.82;89.46
13695;BME280;6919;52.344;14.518;2023-04-02T13:34:27;101359.84;;;8.93;93.08
13695;BME280;6919;52.344;14.518;2023-04-02T13:36:56;101360.53;;;9.06;92.25